sensor_id;sensor_type;location;lat;lon;timestamp;temperature;humidity
17483;DHT22;8858;52.308;20.994;2022-11-03T00:02:01;10.10;99.90
17483;DHT22;8858;52.308;20.994;2022-11-03T00:04:33;10.10;99.90
17483;DHT22;8858;52.308;20.994;2022-11-03T00:07:06;10.00;99.90
17483;DHT22;8858;52.308;20.994;2022-11-03T00:09:59;10.00;99.90
17483;DHT22;8858;52.308;20.994;2022-11-03T00:12:31;10.00;99.90
17483;DHT22;8858;52.308;20.994;2022-11-03T00:15:06;9.90;99.90
17483;DHT22;8858;52.308;20.994;2022-11-03T00:17:45;9.90;99.90
17483;DHT22;8858;52.308;20.994;2022-11-03T00:20:14;9.90;99.90
17483;DHT22;8858;52.308;20.994;2022-11-03T00:22:50;9.80;99.90
17483;DHT22;8858;52.308;20.994;2022-11-03T00:25:19;9.80;99.90
17483;DHT22;8858;52.308;20.994;2022-11-03T00:27:53;9.80;99.90
17483;DHT22;8858;52.308;20.994;2022-11-03T00:30:23;9.70;99.90
17483;DHT22;8858;52.308;20.994;2022-11-03T00:32:51;9.70;99.90
17483;DHT22;8858;52.308;20.994;2022-11-03T00:35:20;9.70;99.90
17483;DHT22;8858;52.308;20.994;2022-11-03T00:37:50;9.60;99.90
17483;DHT22;8858;52.308;20.994;2022-11-03T00:40:20;9.60;99.90
17483;DHT22;8858;52.308;20.994;2022-11-03T00:42:49;9.60;99.90
17483;DHT22;8858;52.308;20.994;2022-11-03T00:45:18;9.60;99.90
17483;DHT22;8858;52.308;20.994;2022-11-03T00:47:47;9.60;99.90
17483;DHT22;8858;52.308;20.994;2022-11-03T00:51:03;9.50;99.90
17483;DHT22;8858;52.308;20.994;2022-11-03T00:53:46;9.50;99.90
17483;DHT22;8858;52.308;20.994;2022-11-03T00:57:05;9.40;99.90
17483;DHT22;8858;52.308;20.994;2022-11-03T00:59:38;9.40;99.90
17483;DHT22;8858;52.308;20.994;2022-11-03T01:02:12;9.40;99.90
17483;DHT22;8858;52.308;20.994;2022-11-03T01:17:53;9.30;99.90
17483;DHT22;8858;52.308;20.994;2022-11-03T01:21:10;9.30;99.90
17483;DHT22;8858;52.308;20.994;2022-11-03T01:23:40;9.30;99.90
17483;DHT22;8858;52.308;20.994;2022-11-03T01:26:10;9.30;99.90
17483;DHT22;8858;52.308;20.994;2022-11-03T01:28:40;9.20;99.90
17483;DHT22;8858;52.308;20.994;2022-11-03T01:31:13;9.20;99.90
17483;DHT22;8858;52.308;20.994;2022-11-03T01:33:43;9.20;99.90
17483;DHT22;8858;52.308;20.994;2022-11-03T01:36:13;9.20;99.90
17483;DHT22;8858;52.308;20.994;2022-11-03T01:38:42;9.20;99.90
17483;DHT22;8858;52.308;20.994;2022-11-03T01:41:55;9.20;99.90
17483;DHT22;8858;52.308;20.994;2022-11-03T01:44:31;9.20;99.90
17483;DHT22;8858;52.308;20.994;2022-11-03T01:47:23;9.10;99.90
17483;DHT22;8858;52.308;20.994;2022-11-03T01:49:59;9.10;99.90
17483;DHT22;8858;52.308;20.994;2022-11-03T01:52:36;9.10;99.90
17483;DHT22;8858;52.308;20.994;2022-11-03T01:55:09;9.00;99.90
17483;DHT22;8858;52.308;20.994;2022-11-03T01:57:42;9.00;99.90
17483;DHT22;8858;52.308;20.994;2022-11-03T02:00:43;9.00;99.90
17483;DHT22;8858;52.308;20.994;2022-11-03T02:03:13;8.90;99.90
17483;DHT22;8858;52.308;20.994;2022-11-03T02:05:47;8.90;99.90
17483;DHT22;8858;52.308;20.994;2022-11-03T02:08:21;8.80;99.90
17483;DHT22;8858;52.308;20.994;2022-11-03T02:10:51;8.80;99.90
17483;DHT22;8858;52.308;20.994;2022-11-03T02:13:45;8.80;99.90
17483;DHT22;8858;52.308;20.994;2022-11-03T02:16:43;8.70;99.90
17483;DHT22;8858;52.308;20.994;2022-11-03T02:19:38;8.80;99.90
17483;DHT22;8858;52.308;20.994;2022-11-03T02:23:43;8.80;99.90
17483;DHT22;8858;52.308;20.994;2022-11-03T02:32:04;8.80;99.90
17483;DHT22;8858;52.308;20.994;2022-11-03T02:39:08;8.80;99.90
17483;DHT22;8858;52.308;20.994;2022-11-03T02:41:41;8.70;99.90
17483;DHT22;8858;52.308;20.994;2022-11-03T02:44:36;8.70;99.90
17483;DHT22;8858;52.308;20.994;2022-11-03T02:48:14;8.70;99.90
17483;DHT22;8858;52.308;20.994;2022-11-03T02:51:18;8.70;99.90
17483;DHT22;8858;52.308;20.994;2022-11-03T02:54:47;8.70;99.90
17483;DHT22;8858;52.308;20.994;2022-11-03T02:58:15;8.70;99.90
17483;DHT22;8858;52.308;20.994;2022-11-03T03:01:35;8.70;99.90
17483;DHT22;8858;52.308;20.994;2022-11-03T03:04:18;8.60;99.90
17483;DHT22;8858;52.308;20.994;2022-11-03T03:06:51;8.60;99.90
17483;DHT22;8858;52.308;20.994;2022-11-03T03:09:26;8.60;99.90
17483;DHT22;8858;52.308;20.994;2022-11-03T03:13:14;8.60;99.90
17483;DHT22;8858;52.308;20.994;2022-11-03T03:24:13;8.50;99.90
17483;DHT22;8858;52.308;20.994;2022-11-03T03:27:00;8.50;99.90
17483;DHT22;8858;52.308;20.994;2022-11-03T03:29:40;8.60;99.90
17483;DHT22;8858;52.308;20.994;2022-11-03T03:32:11;8.50;99.90
17483;DHT22;8858;52.308;20.994;2022-11-03T03:34:44;8.50;99.90
17483;DHT22;8858;52.308;20.994;2022-11-03T03:37:23;8.40;99.90
17483;DHT22;8858;52.308;20.994;2022-11-03T03:40:03;8.40;99.90
17483;DHT22;8858;52.308;20.994;2022-11-03T03:42:35;8.40;99.90
17483;DHT22;8858;52.308;20.994;2022-11-03T03:45:06;8.40;99.90
17483;DHT22;8858;52.308;20.994;2022-11-03T03:47:37;8.30;99.90
17483;DHT22;8858;52.308;20.994;2022-11-03T03:50:11;8.40;99.90
17483;DHT22;8858;52.308;20.994;2022-11-03T03:52:40;8.30;99.90
17483;DHT22;8858;52.308;20.994;2022-11-03T03:55:17;8.20;99.90
17483;DHT22;8858;52.308;20.994;2022-11-03T03:57:47;8.20;99.90
17483;DHT22;8858;52.308;20.994;2022-11-03T04:00:29;8.20;99.90
17483;DHT22;8858;52.308;20.994;2022-11-03T04:02:57;8.10;99.90
17483;DHT22;8858;52.308;20.994;2022-11-03T04:05:26;8.10;99.90
17483;DHT22;8858;52.308;20.994;2022-11-03T04:08:00;8.00;99.90
17483;DHT22;8858;52.308;20.994;2022-11-03T04:10:34;8.00;99.90
17483;DHT22;8858;52.308;20.994;2022-11-03T04:13:02;8.00;99.90
17483;DHT22;8858;52.308;20.994;2022-11-03T04:15:48;7.90;99.90
17483;DHT22;8858;52.308;20.994;2022-11-03T04:18:35;7.90;99.90
17483;DHT22;8858;52.308;20.994;2022-11-03T04:21:24;7.80;99.90
17483;DHT22;8858;52.308;20.994;2022-11-03T04:24:15;7.80;99.90
17483;DHT22;8858;52.308;20.994;2022-11-03T04:26:45;7.80;99.90
17483;DHT22;8858;52.308;20.994;2022-11-03T04:29:14;7.80;99.90
17483;DHT22;8858;52.308;20.994;2022-11-03T04:31:43;7.80;99.90
17483;DHT22;8858;52.308;20.994;2022-11-03T04:34:12;7.70;99.90
17483;DHT22;8858;52.308;20.994;2022-11-03T04:37:31;7.70;99.90
17483;DHT22;8858;52.308;20.994;2022-11-03T04:40:53;7.70;99.90
17483;DHT22;8858;52.308;20.994;2022-11-03T04:43:30;7.70;99.90
17483;DHT22;8858;52.308;20.994;2022-11-03T04:47:15;7.60;99.90
17483;DHT22;8858;52.308;20.994;2022-11-03T04:49:46;7.60;99.90
17483;DHT22;8858;52.308;20.994;2022-11-03T04:52:29;7.60;99.90
17483;DHT22;8858;52.308;20.994;2022-11-03T04:55:18;7.60;99.90
17483;DHT22;8858;52.308;20.994;2022-11-03T04:58:18;7.60;99.90
17483;DHT22;8858;52.308;20.994;2022-11-03T05:00:49;7.60;99.90
17483;DHT22;8858;52.308;20.994;2022-11-03T05:03:24;7.60;99.90
17483;DHT22;8858;52.308;20.994;2022-11-03T05:06:01;7.50;99.90
17483;DHT22;8858;52.308;20.994;2022-11-03T05:09:14;7.50;99.90
17483;DHT22;8858;52.308;20.994;2022-11-03T05:11:45;7.60;99.90
17483;DHT22;8858;52.308;20.994;2022-11-03T05:14:17;7.50;99.90
17483;DHT22;8858;52.308;20.994;2022-11-03T05:16:50;7.60;99.90
17483;DHT22;8858;52.308;20.994;2022-11-03T05:19:22;7.50;99.90
17483;DHT22;8858;52.308;20.994;2022-11-03T05:21:52;7.50;99.90
17483;DHT22;8858;52.308;20.994;2022-11-03T05:24:21;7.50;99.90
17483;DHT22;8858;52.308;20.994;2022-11-03T05:26:57;7.50;99.90
17483;DHT22;8858;52.308;20.994;2022-11-03T05:29:31;7.40;99.90
17483;DHT22;8858;52.308;20.994;2022-11-03T05:32:13;7.40;99.90
17483;DHT22;8858;52.308;20.994;2022-11-03T05:34:43;7.40;99.90
17483;DHT22;8858;52.308;20.994;2022-11-03T05:37:32;7.50;99.90
17483;DHT22;8858;52.308;20.994;2022-11-03T05:40:15;7.50;99.90
17483;DHT22;8858;52.308;20.994;2022-11-03T05:42:50;7.50;99.90
17483;DHT22;8858;52.308;20.994;2022-11-03T05:45:23;7.50;99.90
17483;DHT22;8858;52.308;20.994;2022-11-03T05:47:54;7.50;99.90
17483;DHT22;8858;52.308;20.994;2022-11-03T05:50:33;7.50;99.90
17483;DHT22;8858;52.308;20.994;2022-11-03T05:53:30;7.60;99.90
17483;DHT22;8858;52.308;20.994;2022-11-03T05:56:02;7.60;99.90
17483;DHT22;8858;52.308;20.994;2022-11-03T05:58:35;7.50;99.90
17483;DHT22;8858;52.308;20.994;2022-11-03T06:01:09;7.70;99.90
17483;DHT22;8858;52.308;20.994;2022-11-03T06:03:40;7.70;99.90
17483;DHT22;8858;52.308;20.994;2022-11-03T06:06:14;7.60;99.90
17483;DHT22;8858;52.308;20.994;2022-11-03T06:08:56;7.60;99.90
17483;DHT22;8858;52.308;20.994;2022-11-03T06:11:27;7.60;99.90
17483;DHT22;8858;52.308;20.994;2022-11-03T06:13:58;7.50;99.90
17483;DHT22;8858;52.308;20.994;2022-11-03T06:16:36;7.50;99.90
17483;DHT22;8858;52.308;20.994;2022-11-03T06:19:19;7.60;99.90
17483;DHT22;8858;52.308;20.994;2022-11-03T06:21:51;7.60;99.90
17483;DHT22;8858;52.308;20.994;2022-11-03T06:24:23;7.60;99.90
17483;DHT22;8858;52.308;20.994;2022-11-03T06:26:53;7.60;99.90
17483;DHT22;8858;52.308;20.994;2022-11-03T06:29:49;7.60;99.90
17483;DHT22;8858;52.308;20.994;2022-11-03T06:32:24;7.60;99.90
17483;DHT22;8858;52.308;20.994;2022-11-03T06:35:01;7.70;99.90
17483;DHT22;8858;52.308;20.994;2022-11-03T06:38:17;7.80;99.90
17483;DHT22;8858;52.308;20.994;2022-11-03T06:40:48;7.80;99.90
17483;DHT22;8858;52.308;20.994;2022-11-03T06:43:19;7.80;99.90
17483;DHT22;8858;52.308;20.994;2022-11-03T06:45:56;7.80;99.90
17483;DHT22;8858;52.308;20.994;2022-11-03T06:48:31;7.70;99.90
17483;DHT22;8858;52.308;20.994;2022-11-03T06:51:14;7.80;99.90
17483;DHT22;8858;52.308;20.994;2022-11-03T06:53:50;7.80;99.90
17483;DHT22;8858;52.308;20.994;2022-11-03T06:56:35;7.80;99.90
17483;DHT22;8858;52.308;20.994;2022-11-03T06:59:08;7.80;99.90
17483;DHT22;8858;52.308;20.994;2022-11-03T07:01:50;7.90;99.90
17483;DHT22;8858;52.308;20.994;2022-11-03T07:04:28;7.90;99.90
17483;DHT22;8858;52.308;20.994;2022-11-03T07:07:02;8.00;99.90
17483;DHT22;8858;52.308;20.994;2022-11-03T07:09:34;8.10;99.90
17483;DHT22;8858;52.308;20.994;2022-11-03T07:12:21;8.20;99.90
17483;DHT22;8858;52.308;20.994;2022-11-03T07:14:51;8.20;99.90
17483;DHT22;8858;52.308;20.994;2022-11-03T07:17:23;8.20;99.90
17483;DHT22;8858;52.308;20.994;2022-11-03T07:19:52;8.20;99.90
17483;DHT22;8858;52.308;20.994;2022-11-03T07:22:28;8.30;99.90
17483;DHT22;8858;52.308;20.994;2022-11-03T07:25:05;8.30;99.90
17483;DHT22;8858;52.308;20.994;2022-11-03T07:27:41;8.30;99.90
17483;DHT22;8858;52.308;20.994;2022-11-03T07:30:18;8.30;99.90
17483;DHT22;8858;52.308;20.994;2022-11-03T07:32:51;8.30;99.90
17483;DHT22;8858;52.308;20.994;2022-11-03T07:35:29;8.30;99.90
17483;DHT22;8858;52.308;20.994;2022-11-03T07:38:25;8.40;99.90
17483;DHT22;8858;52.308;20.994;2022-11-03T07:40:59;8.40;99.90
17483;DHT22;8858;52.308;20.994;2022-11-03T07:43:30;8.50;99.90
17483;DHT22;8858;52.308;20.994;2022-11-03T07:46:01;8.60;99.90
17483;DHT22;8858;52.308;20.994;2022-11-03T07:48:41;8.60;99.90
17483;DHT22;8858;52.308;20.994;2022-11-03T07:51:17;8.60;99.90
17483;DHT22;8858;52.308;20.994;2022-11-03T07:53:52;8.70;99.90
17483;DHT22;8858;52.308;20.994;2022-11-03T07:56:26;8.70;99.90
17483;DHT22;8858;52.308;20.994;2022-11-03T07:58:59;8.70;99.90
17483;DHT22;8858;52.308;20.994;2022-11-03T08:01:29;8.80;99.90
17483;DHT22;8858;52.308;20.994;2022-11-03T08:04:02;8.80;99.90
17483;DHT22;8858;52.308;20.994;2022-11-03T08:06:32;8.90;99.90
17483;DHT22;8858;52.308;20.994;2022-11-03T08:09:03;8.90;99.90
17483;DHT22;8858;52.308;20.994;2022-11-03T08:11:32;9.00;99.90
17483;DHT22;8858;52.308;20.994;2022-11-03T08:14:01;9.10;99.90
17483;DHT22;8858;52.308;20.994;2022-11-03T08:16:30;9.20;99.90
17483;DHT22;8858;52.308;20.994;2022-11-03T08:19:00;9.30;99.90
17483;DHT22;8858;52.308;20.994;2022-11-03T08:21:28;9.40;99.90
17483;DHT22;8858;52.308;20.994;2022-11-03T08:23:57;9.40;99.90
17483;DHT22;8858;52.308;20.994;2022-11-03T08:26:33;9.40;99.90
17483;DHT22;8858;52.308;20.994;2022-11-03T08:29:07;9.50;99.90
17483;DHT22;8858;52.308;20.994;2022-11-03T08:31:36;9.60;99.90
17483;DHT22;8858;52.308;20.994;2022-11-03T08:34:05;9.60;99.90
17483;DHT22;8858;52.308;20.994;2022-11-03T08:36:36;9.70;99.90
17483;DHT22;8858;52.308;20.994;2022-11-03T08:39:05;9.80;99.90
17483;DHT22;8858;52.308;20.994;2022-11-03T08:41:38;9.90;99.90
17483;DHT22;8858;52.308;20.994;2022-11-03T08:44:06;10.00;99.90
17483;DHT22;8858;52.308;20.994;2022-11-03T08:46:36;9.90;99.90
17483;DHT22;8858;52.308;20.994;2022-11-03T08:49:04;10.00;99.90
17483;DHT22;8858;52.308;20.994;2022-11-03T08:51:33;10.00;99.90
17483;DHT22;8858;52.308;20.994;2022-11-03T08:54:09;10.00;99.90
17483;DHT22;8858;52.308;20.994;2022-11-03T08:56:39;9.90;99.90
17483;DHT22;8858;52.308;20.994;2022-11-03T08:59:11;10.00;99.90
17483;DHT22;8858;52.308;20.994;2022-11-03T09:01:40;10.00;99.90
17483;DHT22;8858;52.308;20.994;2022-11-03T09:04:09;10.00;99.90
17483;DHT22;8858;52.308;20.994;2022-11-03T09:06:38;10.10;99.90
17483;DHT22;8858;52.308;20.994;2022-11-03T09:09:08;10.30;99.90
17483;DHT22;8858;52.308;20.994;2022-11-03T09:12:01;10.30;99.90
17483;DHT22;8858;52.308;20.994;2022-11-03T09:14:33;10.40;99.90
17483;DHT22;8858;52.308;20.994;2022-11-03T09:17:02;10.40;99.90
17483;DHT22;8858;52.308;20.994;2022-11-03T09:19:32;10.40;99.90
17483;DHT22;8858;52.308;20.994;2022-11-03T09:22:00;10.50;99.90
17483;DHT22;8858;52.308;20.994;2022-11-03T09:24:29;10.50;99.90
17483;DHT22;8858;52.308;20.994;2022-11-03T09:26:58;10.60;99.90
17483;DHT22;8858;52.308;20.994;2022-11-03T09:29:34;10.60;99.90
17483;DHT22;8858;52.308;20.994;2022-11-03T09:32:24;10.70;99.90
17483;DHT22;8858;52.308;20.994;2022-11-03T09:34:52;10.70;99.90
17483;DHT22;8858;52.308;20.994;2022-11-03T09:37:24;10.70;99.90
17483;DHT22;8858;52.308;20.994;2022-11-03T09:39:54;10.80;99.90
17483;DHT22;8858;52.308;20.994;2022-11-03T09:42:25;10.90;99.90
17483;DHT22;8858;52.308;20.994;2022-11-03T09:44:56;10.90;99.90
17483;DHT22;8858;52.308;20.994;2022-11-03T09:47:29;11.00;99.90
17483;DHT22;8858;52.308;20.994;2022-11-03T09:49:59;11.10;99.90
17483;DHT22;8858;52.308;20.994;2022-11-03T09:52:32;11.10;99.90
17483;DHT22;8858;52.308;20.994;2022-11-03T09:55:12;11.20;99.90
17483;DHT22;8858;52.308;20.994;2022-11-03T09:57:41;11.20;99.90
17483;DHT22;8858;52.308;20.994;2022-11-03T10:00:18;11.30;99.90
17483;DHT22;8858;52.308;20.994;2022-11-03T10:02:49;11.30;99.90
17483;DHT22;8858;52.308;20.994;2022-11-03T10:05:21;11.40;99.90
17483;DHT22;8858;52.308;20.994;2022-11-03T10:07:51;11.40;99.90
17483;DHT22;8858;52.308;20.994;2022-11-03T10:10:26;11.40;99.90
17483;DHT22;8858;52.308;20.994;2022-11-03T10:12:55;11.40;99.90
17483;DHT22;8858;52.308;20.994;2022-11-03T10:15:26;11.50;99.90
17483;DHT22;8858;52.308;20.994;2022-11-03T10:17:54;11.50;99.90
17483;DHT22;8858;52.308;20.994;2022-11-03T10:20:23;11.60;99.90
17483;DHT22;8858;52.308;20.994;2022-11-03T10:22:53;11.60;99.90
17483;DHT22;8858;52.308;20.994;2022-11-03T10:25:32;11.60;99.90
17483;DHT22;8858;52.308;20.994;2022-11-03T10:28:12;11.70;99.90
17483;DHT22;8858;52.308;20.994;2022-11-03T10:30:54;11.80;99.90
17483;DHT22;8858;52.308;20.994;2022-11-03T10:33:38;11.90;99.90
17483;DHT22;8858;52.308;20.994;2022-11-03T10:36:23;12.00;99.90
17483;DHT22;8858;52.308;20.994;2022-11-03T10:38:55;12.10;99.90
17483;DHT22;8858;52.308;20.994;2022-11-03T10:41:29;12.20;99.90
17483;DHT22;8858;52.308;20.994;2022-11-03T10:44:04;12.20;99.90
17483;DHT22;8858;52.308;20.994;2022-11-03T10:46:37;12.30;99.90
17483;DHT22;8858;52.308;20.994;2022-11-03T10:49:22;12.40;99.90
17483;DHT22;8858;52.308;20.994;2022-11-03T10:51:52;12.40;99.90
17483;DHT22;8858;52.308;20.994;2022-11-03T10:54:22;12.40;99.90
17483;DHT22;8858;52.308;20.994;2022-11-03T10:56:52;12.30;99.90
17483;DHT22;8858;52.308;20.994;2022-11-03T10:59:23;12.30;99.90
17483;DHT22;8858;52.308;20.994;2022-11-03T11:01:54;12.40;99.90
17483;DHT22;8858;52.308;20.994;2022-11-03T11:04:32;12.60;99.90
17483;DHT22;8858;52.308;20.994;2022-11-03T11:07:33;12.70;99.90
17483;DHT22;8858;52.308;20.994;2022-11-03T11:10:12;12.90;99.90
17483;DHT22;8858;52.308;20.994;2022-11-03T11:15:58;12.90;99.90
17483;DHT22;8858;52.308;20.994;2022-11-03T11:22:00;13.00;99.90
17483;DHT22;8858;52.308;20.994;2022-11-03T11:25:02;13.00;99.90
17483;DHT22;8858;52.308;20.994;2022-11-03T11:27:57;13.00;99.90
17483;DHT22;8858;52.308;20.994;2022-11-03T11:33:30;13.20;99.90
17483;DHT22;8858;52.308;20.994;2022-11-03T11:39:00;13.40;99.90
17483;DHT22;8858;52.308;20.994;2022-11-03T11:42:04;13.30;99.90
17483;DHT22;8858;52.308;20.994;2022-11-03T11:45:03;13.30;99.90
17483;DHT22;8858;52.308;20.994;2022-11-03T11:47:46;13.30;99.90
17483;DHT22;8858;52.308;20.994;2022-11-03T11:50:27;13.40;99.90
17483;DHT22;8858;52.308;20.994;2022-11-03T11:53:12;13.50;99.90
17483;DHT22;8858;52.308;20.994;2022-11-03T11:55:57;13.60;99.90
17483;DHT22;8858;52.308;20.994;2022-11-03T11:58:33;13.80;99.90
17483;DHT22;8858;52.308;20.994;2022-11-03T12:01:18;13.90;99.90
17483;DHT22;8858;52.308;20.994;2022-11-03T12:03:48;14.00;99.90
17483;DHT22;8858;52.308;20.994;2022-11-03T12:06:32;14.10;99.90
17483;DHT22;8858;52.308;20.994;2022-11-03T12:09:16;14.10;99.90
17483;DHT22;8858;52.308;20.994;2022-11-03T12:11:54;14.10;99.90
17483;DHT22;8858;52.308;20.994;2022-11-03T12:14:33;14.10;99.90
17483;DHT22;8858;52.308;20.994;2022-11-03T12:17:30;14.00;99.90
17483;DHT22;8858;52.308;20.994;2022-11-03T12:23:10;14.20;99.90
17483;DHT22;8858;52.308;20.994;2022-11-03T12:26:17;14.20;99.90
17483;DHT22;8858;52.308;20.994;2022-11-03T12:28:48;14.20;99.90
17483;DHT22;8858;52.308;20.994;2022-11-03T12:31:19;14.10;99.90
17483;DHT22;8858;52.308;20.994;2022-11-03T12:33:48;14.00;99.90
17483;DHT22;8858;52.308;20.994;2022-11-03T12:36:17;13.90;99.90
17483;DHT22;8858;52.308;20.994;2022-11-03T12:38:46;13.90;99.90
17483;DHT22;8858;52.308;20.994;2022-11-03T12:41:14;13.80;99.90
17483;DHT22;8858;52.308;20.994;2022-11-03T12:44:08;13.80;99.90
17483;DHT22;8858;52.308;20.994;2022-11-03T12:46:46;13.80;99.90
17483;DHT22;8858;52.308;20.994;2022-11-03T12:49:19;13.80;99.90
17483;DHT22;8858;52.308;20.994;2022-11-03T12:51:55;13.80;99.90
17483;DHT22;8858;52.308;20.994;2022-11-03T12:54:41;13.80;99.90
17483;DHT22;8858;52.308;20.994;2022-11-03T12:57:10;13.80;99.90
17483;DHT22;8858;52.308;20.994;2022-11-03T12:59:41;13.80;99.90
17483;DHT22;8858;52.308;20.994;2022-11-03T13:02:10;13.80;99.90
17483;DHT22;8858;52.308;20.994;2022-11-03T13:04:39;13.80;99.90
17483;DHT22;8858;52.308;20.994;2022-11-03T13:07:07;13.80;99.90
17483;DHT22;8858;52.308;20.994;2022-11-03T13:09:40;13.80;99.90
17483;DHT22;8858;52.308;20.994;2022-11-03T13:12:35;13.80;99.90
17483;DHT22;8858;52.308;20.994;2022-11-03T13:15:25;13.80;99.90
17483;DHT22;8858;52.308;20.994;2022-11-03T13:17:55;13.80;99.90
17483;DHT22;8858;52.308;20.994;2022-11-03T13:20:43;13.80;99.90
17483;DHT22;8858;52.308;20.994;2022-11-03T13:23:11;13.80;99.90
17483;DHT22;8858;52.308;20.994;2022-11-03T13:25:46;13.70;99.90
17483;DHT22;8858;52.308;20.994;2022-11-03T13:28:14;13.60;99.90
17483;DHT22;8858;52.308;20.994;2022-11-03T13:30:46;13.60;99.90
17483;DHT22;8858;52.308;20.994;2022-11-03T13:33:15;13.60;99.90
17483;DHT22;8858;52.308;20.994;2022-11-03T13:35:50;13.60;99.90
17483;DHT22;8858;52.308;20.994;2022-11-03T13:38:18;13.70;99.90
17483;DHT22;8858;52.308;20.994;2022-11-03T13:40:48;13.70;99.90
17483;DHT22;8858;52.308;20.994;2022-11-03T13:43:24;13.70;99.90
17483;DHT22;8858;52.308;20.994;2022-11-03T13:50:00;13.70;99.90
17483;DHT22;8858;52.308;20.994;2022-11-03T13:52:48;13.80;99.90
17483;DHT22;8858;52.308;20.994;2022-11-03T13:55:25;13.70;99.90
17483;DHT22;8858;52.308;20.994;2022-11-03T13:58:43;13.70;99.90
17483;DHT22;8858;52.308;20.994;2022-11-03T14:01:43;13.60;99.90
17483;DHT22;8858;52.308;20.994;2022-11-03T14:04:56;13.60;99.90
17483;DHT22;8858;52.308;20.994;2022-11-03T14:07:27;13.60;99.90
17483;DHT22;8858;52.308;20.994;2022-11-03T14:09:56;13.60;99.90
17483;DHT22;8858;52.308;20.994;2022-11-03T14:12:29;13.50;99.90
17483;DHT22;8858;52.308;20.994;2022-11-03T14:14:57;13.50;99.90
17483;DHT22;8858;52.308;20.994;2022-11-03T14:17:31;13.40;99.90
17483;DHT22;8858;52.308;20.994;2022-11-03T14:20:00;13.30;99.90
17483;DHT22;8858;52.308;20.994;2022-11-03T14:22:35;13.30;99.90
17483;DHT22;8858;52.308;20.994;2022-11-03T14:25:05;13.20;99.90
17483;DHT22;8858;52.308;20.994;2022-11-03T14:27:33;13.20;99.90
17483;DHT22;8858;52.308;20.994;2022-11-03T14:30:05;13.10;99.90
17483;DHT22;8858;52.308;20.994;2022-11-03T14:32:34;13.10;99.90
17483;DHT22;8858;52.308;20.994;2022-11-03T14:35:06;13.00;99.90
17483;DHT22;8858;52.308;20.994;2022-11-03T14:37:39;12.90;99.90
17483;DHT22;8858;52.308;20.994;2022-11-03T14:40:32;12.90;99.90
17483;DHT22;8858;52.308;20.994;2022-11-03T14:43:23;12.80;99.90
17483;DHT22;8858;52.308;20.994;2022-11-03T14:46:00;12.80;99.90
17483;DHT22;8858;52.308;20.994;2022-11-03T14:48:29;12.80;99.90
17483;DHT22;8858;52.308;20.994;2022-11-03T14:50:57;12.80;99.90
17483;DHT22;8858;52.308;20.994;2022-11-03T14:53:27;12.70;99.90
17483;DHT22;8858;52.308;20.994;2022-11-03T14:55:56;12.70;99.90
17483;DHT22;8858;52.308;20.994;2022-11-03T14:58:24;12.70;99.90
17483;DHT22;8858;52.308;20.994;2022-11-03T15:00:54;12.60;99.90
17483;DHT22;8858;52.308;20.994;2022-11-03T15:03:23;12.50;99.90
17483;DHT22;8858;52.308;20.994;2022-11-03T15:05:55;12.50;99.90
17483;DHT22;8858;52.308;20.994;2022-11-03T15:08:24;12.40;99.90
17483;DHT22;8858;52.308;20.994;2022-11-03T15:11:03;12.30;99.90
17483;DHT22;8858;52.308;20.994;2022-11-03T15:13:33;12.20;99.90
17483;DHT22;8858;52.308;20.994;2022-11-03T15:16:14;12.20;99.90
17483;DHT22;8858;52.308;20.994;2022-11-03T15:18:42;12.10;99.90
17483;DHT22;8858;52.308;20.994;2022-11-03T15:21:34;12.00;99.90
17483;DHT22;8858;52.308;20.994;2022-11-03T15:24:03;11.90;99.90
17483;DHT22;8858;52.308;20.994;2022-11-03T15:26:57;11.80;99.90
17483;DHT22;8858;52.308;20.994;2022-11-03T15:29:30;11.80;99.90
17483;DHT22;8858;52.308;20.994;2022-11-03T15:32:04;11.70;99.90
17483;DHT22;8858;52.308;20.994;2022-11-03T15:34:34;11.60;99.90
17483;DHT22;8858;52.308;20.994;2022-11-03T15:37:02;11.50;99.90
17483;DHT22;8858;52.308;20.994;2022-11-03T15:39:55;11.40;99.90
17483;DHT22;8858;52.308;20.994;2022-11-03T15:42:27;11.30;99.90
17483;DHT22;8858;52.308;20.994;2022-11-03T15:44:56;11.20;99.90
17483;DHT22;8858;52.308;20.994;2022-11-03T15:47:24;11.20;99.90
17483;DHT22;8858;52.308;20.994;2022-11-03T15:49:52;11.10;99.90
17483;DHT22;8858;52.308;20.994;2022-11-03T15:52:20;11.10;99.90
17483;DHT22;8858;52.308;20.994;2022-11-03T15:54:49;11.10;99.90
17483;DHT22;8858;52.308;20.994;2022-11-03T15:57:27;11.00;99.90
17483;DHT22;8858;52.308;20.994;2022-11-03T15:59:58;10.90;99.90
17483;DHT22;8858;52.308;20.994;2022-11-03T16:02:30;10.90;99.90
17483;DHT22;8858;52.308;20.994;2022-11-03T16:05:08;10.80;99.90
17483;DHT22;8858;52.308;20.994;2022-11-03T16:07:37;10.70;99.90
17483;DHT22;8858;52.308;20.994;2022-11-03T16:10:06;10.70;99.90
17483;DHT22;8858;52.308;20.994;2022-11-03T16:12:41;10.60;99.90
17483;DHT22;8858;52.308;20.994;2022-11-03T16:15:10;10.60;99.90
17483;DHT22;8858;52.308;20.994;2022-11-03T16:17:38;10.50;99.90
17483;DHT22;8858;52.308;20.994;2022-11-03T16:20:11;10.50;99.90
17483;DHT22;8858;52.308;20.994;2022-11-03T16:22:40;10.40;99.90
17483;DHT22;8858;52.308;20.994;2022-11-03T16:25:09;10.40;99.90
17483;DHT22;8858;52.308;20.994;2022-11-03T16:27:41;10.30;99.90
17483;DHT22;8858;52.308;20.994;2022-11-03T16:30:12;10.30;99.90
17483;DHT22;8858;52.308;20.994;2022-11-03T16:32:42;10.20;99.90
17483;DHT22;8858;52.308;20.994;2022-11-03T16:35:10;10.10;99.90
17483;DHT22;8858;52.308;20.994;2022-11-03T16:37:39;10.10;99.90
17483;DHT22;8858;52.308;20.994;2022-11-03T16:40:08;10.00;99.90
17483;DHT22;8858;52.308;20.994;2022-11-03T16:42:47;9.90;99.90
17483;DHT22;8858;52.308;20.994;2022-11-03T16:45:25;9.90;99.90
17483;DHT22;8858;52.308;20.994;2022-11-03T16:48:03;9.90;99.90
17483;DHT22;8858;52.308;20.994;2022-11-03T16:50:34;9.80;99.90
17483;DHT22;8858;52.308;20.994;2022-11-03T16:56:51;9.70;99.90
17483;DHT22;8858;52.308;20.994;2022-11-03T16:59:24;9.70;99.90
17483;DHT22;8858;52.308;20.994;2022-11-03T17:01:52;9.70;99.90
17483;DHT22;8858;52.308;20.994;2022-11-03T17:07:41;9.50;99.90
17483;DHT22;8858;52.308;20.994;2022-11-03T17:10:21;9.50;99.90
17483;DHT22;8858;52.308;20.994;2022-11-03T17:12:49;9.40;99.90
17483;DHT22;8858;52.308;20.994;2022-11-03T17:15:23;9.40;99.90
17483;DHT22;8858;52.308;20.994;2022-11-03T17:18:07;9.30;99.90
17483;DHT22;8858;52.308;20.994;2022-11-03T17:20:36;9.30;99.90
17483;DHT22;8858;52.308;20.994;2022-11-03T17:23:04;9.20;99.90
17483;DHT22;8858;52.308;20.994;2022-11-03T17:25:33;9.20;99.90
17483;DHT22;8858;52.308;20.994;2022-11-03T17:28:30;9.20;99.90
17483;DHT22;8858;52.308;20.994;2022-11-03T17:31:01;9.10;99.90
17483;DHT22;8858;52.308;20.994;2022-11-03T17:33:30;9.10;99.90
17483;DHT22;8858;52.308;20.994;2022-11-03T17:36:00;9.10;99.90
17483;DHT22;8858;52.308;20.994;2022-11-03T17:43:02;9.10;99.90
17483;DHT22;8858;52.308;20.994;2022-11-03T17:49:17;9.10;99.90
17483;DHT22;8858;52.308;20.994;2022-11-03T17:51:50;9.10;99.90